Time;durP1;ratioP1;P1;durP2;ratioP2;P2;SDS_P1;SDS_P2;PMS_P1;PMS_P2;Temp;Humidity;BMP_temperature;BMP_pressure;BME280_temperature;BME280_humidity;BME280_pressure;Samples;Min_cycle;Max_cycle;Signal;HPM_P1;HPM_P2
2021/05/04 00:02:04;;;;;;;5.95;2.25;;;9.00;99.90;;;8.37;47.44;96954.78;4995041;28;20053;-64
2021/05/04 00:04:31;;;;;;;3.55;2.03;;;8.90;99.90;;;8.35;47.36;96941.94;5032809;28;20053;-64
2021/05/04 00:06:57;;;;;;;6.05;2.00;;;8.90;99.90;;;8.36;47.62;96950.50;5024153;28;20053;-64
2021/05/04 00:09:24;;;;;;;4.45;2.10;;;8.90;99.90;;;8.36;47.71;96933.25;5003207;28;20532;-64
2021/05/04 00:11:51;;;;;;;3.92;1.98;;;9.00;99.90;;;8.28;47.91;96935.34;5018154;28;20053;-64
2021/05/04 00:14:19;;;;;;;4.60;2.15;;;9.00;99.90;;;8.30;47.91;96930.09;5012839;28;20026;-64
2021/05/04 00:16:45;;;;;;;3.92;2.13;;;8.90;99.90;;;8.23;48.33;96923.50;4977767;28;20045;-64
2021/05/04 00:19:12;;;;;;;4.72;2.60;;;8.90;99.90;;;8.18;48.31;96926.28;5023606;28;20092;-64
2021/05/04 00:21:40;;;;;;;5.50;2.35;;;8.80;99.90;;;8.26;48.12;96913.06;5026118;28;20080;-64
2021/05/04 00:24:07;;;;;;;8.70;2.72;;;8.80;99.90;;;8.11;48.89;96899.03;4994023;28;20061;-64
2021/05/04 00:26:34;;;;;;;6.82;2.20;;;8.80;99.90;;;8.19;48.60;96896.97;5011884;28;20053;-64
2021/05/04 00:29:00;;;;;;;6.68;2.65;;;8.80;99.90;;;8.12;48.72;96898.97;5003947;28;20049;-64
2021/05/04 00:31:27;;;;;;;4.85;2.22;;;8.70;99.90;;;8.08;49.21;96892.25;5014815;28;20042;-64
2021/05/04 00:33:54;;;;;;;7.63;2.47;;;8.70;99.90;;;8.11;49.23;96879.19;5011468;28;20042;-64
2021/05/04 00:36:21;;;;;;;3.72;2.35;;;8.70;99.90;;;8.14;49.26;96880.78;5011851;28;20042;-65
2021/05/04 00:38:48;;;;;;;7.82;2.35;;;8.80;99.90;;;8.07;49.60;96871.63;4977881;28;20045;-64
2021/05/04 00:41:14;;;;;;;7.00;2.08;;;8.70;99.90;;;8.07;49.49;96867.31;5011549;28;20517;-64
2021/05/04 00:43:42;;;;;;;3.65;2.17;;;8.80;99.90;;;8.12;49.32;96869.72;5005328;28;20049;-64
2021/05/04 00:46:09;;;;;;;4.43;2.15;;;8.80;99.90;;;8.09;49.88;96873.25;5013825;28;20034;-64
2021/05/04 00:48:35;;;;;;;3.00;1.98;;;8.70;99.90;;;8.02;49.95;96866.66;5027160;28;20056;-64
2021/05/04 00:51:03;;;;;;;4.07;2.33;;;8.70;99.90;;;7.99;50.40;96858.22;5011098;28;20046;-64
2021/05/04 00:53:31;;;;;;;7.68;2.58;;;8.60;99.90;;;8.06;49.98;96847.53;5016556;28;20465;-64
2021/05/04 00:55:59;;;;;;;3.53;1.95;;;8.60;99.90;;;8.08;49.87;96857.81;5023788;28;20355;-64
2021/05/04 00:58:27;;;;;;;4.97;2.78;;;8.70;99.90;;;8.15;49.69;96846.31;4980219;28;20046;-64
2021/05/04 01:00:54;;;;;;;5.68;2.20;;;8.80;99.90;;;8.08;50.01;96858.66;4990931;28;20037;-64
2021/05/04 01:03:21;;;;;;;3.38;2.10;;;8.80;99.90;;;8.07;50.35;96838.88;5012922;28;20164;-64
2021/05/04 01:05:48;;;;;;;4.43;2.22;;;8.80;99.90;;;8.00;50.61;96837.47;5001484;28;20042;-64
2021/05/04 01:08:14;;;;;;;3.83;2.35;;;8.80;99.90;;;8.18;50.18;96839.22;5011392;28;20506;-63
2021/05/04 01:10:41;;;;;;;4.93;2.03;;;8.90;99.90;;;8.20;49.92;96834.00;5009728;28;20056;-63
2021/05/04 01:13:08;;;;;;;4.95;2.22;;;8.80;99.90;;;8.14;50.12;96823.94;5016802;28;20034;-63
2021/05/04 01:15:35;;;;;;;4.80;2.47;;;8.80;99.90;;;8.18;50.26;96828.06;5023986;28;20160;-64
2021/05/04 01:18:02;;;;;;;8.20;2.58;;;8.80;99.90;;;8.25;49.96;96823.44;5020416;28;20038;-64
2021/05/04 01:20:29;;;;;;;7.32;3.17;;;8.90;99.90;;;8.16;50.68;96802.31;4993300;28;20050;-64
2021/05/04 01:22:55;;;;;;;4.90;2.42;;;8.80;99.90;;;8.18;50.56;96813.38;4992301;28;20050;-63
2021/05/04 01:25:22;;;;;;;6.05;2.42;;;8.90;99.90;;;8.25;50.26;96772.56;5014222;28;20068;-64
2021/05/04 01:27:49;;;;;;;18.75;2.63;;;8.90;99.90;;;8.21;50.43;96802.09;4993374;28;20042;-63
2021/05/04 01:30:16;;;;;;;5.93;3.00;;;8.90;99.90;;;8.20;50.70;96800.41;5021015;28;20041;-63
2021/05/04 01:32:42;;;;;;;5.45;2.25;;;8.90;99.90;;;8.15;50.89;96800.59;5019633;28;20099;-64
2021/05/04 01:35:11;;;;;;;4.20;2.17;;;8.90;99.90;;;8.27;50.64;96781.09;5023407;28;20103;-66
2021/05/04 01:37:45;;;;;;;5.75;2.67;;;9.00;99.90;;;8.21;51.14;96777.97;4999948;28;20035;-65
2021/05/04 01:40:14;;;;;;;5.65;2.92;;;9.10;99.90;;;8.37;50.60;96760.84;5011470;28;20103;-65
2021/05/04 01:42:44;;;;;;;5.80;2.53;;;9.10;99.90;;;8.38;50.45;96765.09;5011582;28;20064;-65
2021/05/04 01:45:16;;;;;;;6.25;2.30;;;9.10;99.90;;;8.52;50.09;96752.38;4981430;28;20573;-65
2021/05/04 01:47:43;;;;;;;9.38;3.38;;;9.20;99.90;;;8.43;50.74;96742.47;4992138;28;20046;-65
2021/05/04 01:50:12;;;;;;;5.82;2.60;;;9.20;99.90;;;8.38;50.98;96765.09;4992195;28;20038;-63
2021/05/04 01:52:39;;;;;;;7.07;2.75;;;9.20;99.90;;;8.52;50.63;96747.22;4995189;28;20045;-65
2021/05/04 01:55:08;;;;;;;5.85;2.75;;;9.20;99.90;;;8.59;50.65;96734.81;5000719;28;20046;-65
2021/05/04 01:57:35;;;;;;;4.82;2.30;;;9.30;99.90;;;8.48;51.22;96747.44;5016680;28;20057;-66
2021/05/04 02:00:06;;;;;;;8.65;2.60;;;9.30;99.90;;;8.56;51.02;96758.25;5010197;28;20045;-66
2021/05/04 02:02:33;;;;;;;6.82;2.72;;;9.30;99.90;;;8.57;51.18;96736.63;5015912;28;20108;-66
2021/05/04 02:05:00;;;;;;;5.97;2.75;;;9.30;99.90;;;8.62;51.00;96715.72;4993092;28;20177;-65
2021/05/04 02:07:26;;;;;;;10.52;3.40;;;9.30;99.90;;;8.58;51.28;96739.16;5005719;28;20046;-66
2021/05/04 02:09:53;;;;;;;6.75;2.78;;;9.30;99.90;;;8.60;51.56;96718.41;4992881;28;20124;-66
2021/05/04 02:12:20;;;;;;;8.93;3.15;;;9.30;99.90;;;8.65;51.30;96711.25;5003811;28;20068;-65
2021/05/04 02:14:52;;;;;;;6.60;3.58;;;9.30;99.90;;;8.56;51.71;96719.47;5017606;28;20079;-66
2021/05/04 02:17:18;;;;;;;8.02;3.50;;;9.30;99.90;;;8.64;51.50;96703.56;5011683;28;20048;-65
2021/05/04 02:19:46;;;;;;;7.13;3.20;;;9.40;99.90;;;8.64;51.54;96696.63;5010428;28;20494;-66
2021/05/04 02:22:13;;;;;;;8.23;3.20;;;9.40;99.90;;;8.68;51.56;96687.81;5010586;28;20057;-65
2021/05/04 02:24:39;;;;;;;6.25;2.15;;;9.40;99.90;;;8.88;50.97;96699.75;5019676;28;20053;-66
2021/05/04 02:27:06;;;;;;;8.63;3.47;;;9.50;99.90;;;8.76;51.43;96697.81;4989730;28;20046;-65
2021/05/04 02:29:33;;;;;;;8.85;3.63;;;9.50;99.90;;;8.79;51.22;96695.88;5005204;28;20100;-65
2021/05/04 02:31:59;;;;;;;7.63;3.33;;;9.50;99.90;;;8.85;51.22;96680.97;5014377;28;20065;-66
2021/05/04 02:34:26;;;;;;;5.65;2.90;;;9.60;99.90;;;8.86;51.36;96657.59;5010162;28;20153;-66
2021/05/04 02:36:53;;;;;;;8.90;2.70;;;9.60;99.90;;;8.86;51.50;96670.53;4984230;28;20128;-66
2021/05/04 02:39:19;;;;;;;8.65;3.45;;;9.70;99.90;;;8.90;51.42;96664.31;4992995;28;20045;-64
2021/05/04 02:41:46;;;;;;;6.43;2.92;;;9.60;99.90;;;8.91;51.18;96644.44;5020443;28;20060;-65
2021/05/04 02:44:12;;;;;;;7.38;3.42;;;9.60;99.90;;;8.87;51.47;96645.50;5010013;28;20050;-66
2021/05/04 02:46:39;;;;;;;6.63;3.25;;;9.60;99.90;;;8.98;50.95;96644.03;5016516;28;20037;-66
2021/05/04 02:49:06;;;;;;;6.13;3.22;;;9.70;99.90;;;8.92;51.27;96615.06;5022610;28;20046;-65
2021/05/04 02:51:32;;;;;;;7.45;3.65;;;9.60;99.90;;;8.94;51.26;96623.56;5025986;28;20037;-65
2021/05/04 02:53:59;;;;;;;6.63;3.42;;;9.70;99.90;;;8.96;51.04;96594.13;5029131;28;20042;-65
2021/05/04 02:56:25;;;;;;;8.82;4.30;;;9.70;99.90;;;8.94;51.30;96624.41;4994813;28;20034;-65
2021/05/04 02:58:52;;;;;;;5.80;2.72;;;9.70;99.90;;;9.04;50.68;96645.47;4991050;28;20114;-65
2021/05/04 03:01:19;;;;;;;5.93;3.00;;;9.80;99.90;;;8.99;50.94;96629.34;5014393;28;20056;-65
2021/05/04 03:03:45;;;;;;;8.43;3.10;;;9.70;99.90;;;8.96;50.88;96575.13;5009794;28;20049;-65
2021/05/04 03:06:12;;;;;;;6.07;2.92;;;9.70;99.90;;;8.95;50.93;96633.84;5026501;28;20046;-65
2021/05/04 03:08:39;;;;;;;9.52;2.80;;;9.60;99.90;;;9.01;50.53;96596.47;4989584;28;20141;-65
2021/05/04 03:11:05;;;;;;;8.15;3.25;;;9.70;99.90;;;8.97;50.73;96600.94;5003258;28;20056;-65
2021/05/04 03:13:33;;;;;;;10.15;4.07;;;9.60;99.90;;;8.86;51.13;96597.25;5024539;28;20044;-64
2021/05/04 03:16:00;;;;;;;9.43;3.67;;;9.70;99.90;;;8.92;50.89;96589.19;5019701;28;20042;-65
2021/05/04 03:18:27;;;;;;;7.32;3.05;;;9.70;99.90;;;8.87;50.99;96614.44;4991677;28;20050;-65
2021/05/04 03:20:54;;;;;;;6.53;2.90;;;9.70;99.90;;;8.99;50.40;96588.78;5022757;28;20117;-65
2021/05/04 03:23:22;;;;;;;8.48;3.28;;;9.70;99.90;;;9.12;49.53;96595.88;5016457;28;20045;-65
2021/05/04 03:25:50;;;;;;;6.88;3.33;;;9.80;99.90;;;9.06;49.93;96578.94;4991831;28;20062;-65
2021/05/04 03:28:18;;;;;;;5.53;3.20;;;9.90;99.90;;;8.99;50.23;96575.00;5004826;28;20411;-65
2021/05/04 03:30:45;;;;;;;6.05;2.35;;;9.80;99.90;;;9.13;49.66;96559.56;5002459;28;20038;-65
2021/05/04 03:33:12;;;;;;;6.53;2.95;;;9.90;99.90;;;9.11;49.54;96594.22;4974806;28;20038;-65
2021/05/04 03:35:39;;;;;;;5.80;2.70;;;9.80;99.90;;;9.19;49.23;96584.28;5002506;28;20090;-65
2021/05/04 03:38:06;;;;;;;8.13;3.70;;;9.90;99.90;;;9.07;49.63;96544.34;5030167;28;20038;-65
2021/05/04 03:40:32;;;;;;;5.05;2.30;;;9.90;99.90;;;9.16;49.24;96537.84;5007096;28;20049;-65
2021/05/04 03:43:00;;;;;;;5.28;2.47;;;9.90;99.90;;;9.08;49.36;96558.16;5027673;28;20133;-65
2021/05/04 03:45:28;;;;;;;8.18;2.35;;;9.90;99.90;;;9.18;49.05;96551.56;4995449;28;20037;-65
2021/05/04 03:47:55;;;;;;;4.45;2.13;;;9.90;99.90;;;9.17;48.98;96548.13;4974613;28;20394;-65
2021/05/04 03:50:25;;;;;;;5.80;2.50;;;9.90;99.90;;;9.23;48.74;96518.47;4984020;28;20046;-65
2021/05/04 03:52:53;;;;;;;6.97;2.58;;;9.90;99.90;;;9.09;49.39;96536.50;5025747;28;20509;-65
2021/05/04 03:55:20;;;;;;;4.53;2.45;;;9.90;99.90;;;9.20;48.50;96580.78;4994376;28;20050;-65
2021/05/04 03:57:48;;;;;;;5.07;2.38;;;10.00;99.90;;;9.20;48.73;96531.59;5013684;28;20044;-66
2021/05/04 04:00:16;;;;;;;3.97;2.00;;;10.00;99.90;;;9.21;48.64;96548.78;4998390;28;20065;-65
2021/05/04 04:02:43;;;;;;;6.97;2.58;;;10.00;99.90;;;9.14;48.93;96544.88;5027090;28;20049;-65
2021/05/04 04:05:11;;;;;;;6.38;2.17;;;10.00;99.90;;;9.30;47.98;96547.47;4991457;28;20042;-65
2021/05/04 04:07:38;;;;;;;4.85;2.45;;;10.00;99.90;;;9.16;48.80;96546.44;5007229;28;20446;-65
2021/05/04 04:10:07;;;;;;;7.68;2.38;;;10.00;99.90;;;9.24;48.36;96521.91;4994605;28;20132;-65
2021/05/04 04:12:34;;;;;;;11.18;2.50;;;10.10;99.90;;;9.21;48.58;96516.00;5012765;28;20041;-65
2021/05/04 04:15:00;;;;;;;4.68;2.15;;;10.00;99.90;;;9.31;47.99;96441.22;5023989;28;20124;-65
2021/05/04 04:17:27;;;;;;;9.10;2.55;;;10.00;99.90;;;9.27;48.41;96482.91;5011852;28;20073;-65
2021/05/04 04:19:53;;;;;;;7.45;2.65;;;10.00;99.90;;;9.26;48.37;96507.97;5019614;28;20100;-65
2021/05/04 04:22:20;;;;;;;4.47;1.85;;;10.20;99.90;;;9.34;47.98;96495.44;4997414;28;20056;-65
2021/05/04 04:24:46;;;;;;;4.57;2.08;;;10.10;99.90;;;9.35;47.88;96485.91;5025611;28;20056;-65
2021/05/04 04:27:13;;;;;;;4.32;1.67;;;10.20;99.90;;;9.37;48.01;96522.91;5032322;28;20053;-65
2021/05/04 04:29:45;;;;;;;10.40;1.85;;;10.20;99.90;;;9.36;47.86;96519.50;5025565;28;20046;-65
2021/05/04 04:32:11;;;;;;;4.47;2.10;;;10.20;99.90;;;9.35;48.50;96511.78;5021063;28;20096;-65
2021/05/04 04:34:38;;;;;;;7.63;1.85;;;10.20;99.90;;;9.41;47.92;96519.22;5012695;28;20125;-65
2021/05/04 04:37:05;;;;;;;4.82;2.33;;;10.20;99.90;;;9.42;47.89;96531.28;5011082;28;20502;-65
2021/05/04 04:39:32;;;;;;;6.20;2.53;;;10.20;99.90;;;9.35;48.23;96515.25;4985662;28;20046;-65
2021/05/04 04:42:03;;;;;;;5.80;2.42;;;10.20;99.90;;;9.43;47.88;96494.09;4998542;28;20412;-65
2021/05/04 04:44:30;;;;;;;6.13;2.20;;;10.30;99.90;;;9.53;47.54;96494.41;5019532;28;20145;-65
2021/05/04 04:46:57;;;;;;;6.70;2.13;;;10.40;99.90;;;9.41;47.94;96512.28;4993147;28;20510;-65
2021/05/04 04:49:24;;;;;;;3.65;1.70;;;10.30;99.90;;;9.54;47.52;96501.28;5019779;28;20033;-65
2021/05/04 04:51:50;;;;;;;5.80;2.10;;;10.30;99.90;;;9.60;47.12;96524.22;5027102;28;20041;-65
2021/05/04 04:54:17;;;;;;;3.80;1.63;;;10.40;99.90;;;9.58;47.38;96495.84;5012862;28;20034;-65
2021/05/04 04:56:43;;;;;;;11.02;1.73;;;10.40;99.90;;;9.53;47.18;96538.44;5011699;28;20053;-65
2021/05/04 04:59:10;;;;;;;4.65;1.92;;;10.50;99.90;;;9.66;46.92;96492.81;4991736;28;20038;-65
2021/05/04 05:01:36;;;;;;;4.72;1.50;;;10.40;99.90;;;9.58;46.76;96502.78;4993467;28;20133;-65
2021/05/04 05:04:04;;;;;;;4.50;1.60;;;10.50;99.90;;;9.60;46.87;96521.63;4993503;28;20100;-65
2021/05/04 05:06:33;;;;;;;5.18;1.63;;;10.50;99.90;;;9.62;46.93;96486.97;5002022;28;20053;-65
2021/05/04 05:09:01;;;;;;;3.58;1.40;;;10.50;99.90;;;9.63;46.86;96500.75;4994495;28;20053;-65
2021/05/04 05:11:28;;;;;;;5.50;1.20;;;10.60;99.90;;;9.69;46.08;96528.06;4994058;28;20046;-65
2021/05/04 05:13:54;;;;;;;3.17;1.38;;;10.60;99.90;;;9.67;46.75;96499.66;5016352;28;20046;-65
2021/05/04 05:16:22;;;;;;;3.35;1.00;;;10.60;99.90;;;9.69;46.03;96536.66;5015969;28;20528;-66
2021/05/04 05:18:53;;;;;;;6.68;1.85;;;10.60;99.90;;;9.72;46.25;96514.97;5001947;28;20063;-65
2021/05/04 05:21:20;;;;;;;2.78;1.17;;;10.70;99.90;;;9.66;46.29;96521.31;4962490;28;20058;-66
2021/05/04 05:23:48;;;;;;;2.97;1.10;;;10.70;99.90;;;9.76;45.63;96519.03;4992476;28;20418;-65
2021/05/04 05:26:19;;;;;;;3.42;1.00;;;10.70;99.90;;;9.75;45.70;96500.06;5009431;28;20049;-65
2021/05/04 05:28:46;;;;;;;2.97;1.33;;;10.80;99.90;;;9.79;45.73;96482.59;4993389;28;20046;-65
2021/05/04 05:31:13;;;;;;;5.80;1.20;;;10.80;99.90;;;9.82;45.60;96524.69;4976771;28;20045;-65
2021/05/04 05:33:40;;;;;;;1.60;0.90;;;10.70;99.90;;;9.77;45.59;96516.34;4991895;28;20490;-66
2021/05/04 05:36:06;;;;;;;2.50;1.08;;;10.80;99.90;;;9.89;45.65;96441.41;4960503;28;20137;-65
2021/05/04 05:38:36;;;;;;;4.40;1.20;;;10.70;99.90;;;9.81;45.77;96457.44;4993416;28;20042;-65
2021/05/04 05:41:03;;;;;;;2.97;0.80;;;10.80;99.90;;;9.77;45.96;96506.00;4992917;28;20530;-65
2021/05/04 05:43:30;;;;;;;3.40;1.08;;;10.80;99.90;;;9.79;46.03;96444.53;5008776;28;20042;-65
2021/05/04 05:45:57;;;;;;;5.18;0.98;;;10.70;99.90;;;9.74;45.67;96506.19;5027067;28;20045;-65
2021/05/04 05:48:24;;;;;;;3.35;1.15;;;10.80;99.90;;;9.90;45.76;96469.00;4998341;28;20042;-65
2021/05/04 05:50:51;;;;;;;2.50;0.88;;;10.80;99.90;;;9.97;45.34;96468.56;5006416;28;20041;-65
2021/05/04 05:53:18;;;;;;;3.42;1.00;;;10.80;99.90;;;9.78;45.72;96514.59;4994914;28;20042;-65
2021/05/04 05:55:46;;;;;;;1.92;1.00;;;10.90;99.90;;;9.94;45.88;96468.72;4995674;28;20048;-65
2021/05/04 05:58:12;;;;;;;3.88;0.88;;;10.90;99.90;;;9.93;45.91;96498.19;4995478;28;20471;-65
2021/05/04 06:00:39;;;;;;;3.45;1.20;;;11.00;99.90;;;9.87;45.70;96446.69;5012016;28;20045;-65
2021/05/04 06:03:06;;;;;;;2.30;0.98;;;11.00;99.90;;;9.95;45.48;96485.97;5021006;28;20049;-65
2021/05/04 06:05:33;;;;;;;3.10;1.05;;;11.10;99.90;;;9.95;45.67;96493.75;5021907;28;20045;-65
2021/05/04 06:08:01;;;;;;;4.82;0.82;;;11.10;99.90;;;10.03;45.39;96488.97;5018837;28;20065;-66
2021/05/04 06:10:28;;;;;;;1.90;0.95;;;10.90;99.90;;;10.01;45.69;96510.69;5010118;28;20053;-65
2021/05/04 06:13:03;;;;;;;2.63;1.00;;;11.00;99.90;;;10.15;44.95;96496.94;5008590;28;20149;-65
2021/05/04 06:15:29;;;;;;;2.05;1.10;;;11.00;99.80;;;10.09;45.67;96494.72;5026997;28;20140;-65
2021/05/04 06:17:56;;;;;;;4.95;0.90;;;11.10;99.90;;;10.16;44.96;96519.34;4983325;28;20116;-65
2021/05/04 06:20:24;;;;;;;6.85;1.05;;;11.20;99.60;;;10.13;45.06;96511.78;5008970;28;20060;-65
2021/05/04 06:22:51;;;;;;;4.28;1.15;;;11.20;99.50;;;10.05;44.80;96473.31;5018115;28;20053;-65
2021/05/04 06:25:17;;;;;;;5.57;1.23;;;11.10;99.30;;;9.96;45.28;96529.09;5012349;28;20097;-65
2021/05/04 06:27:44;;;;;;;2.35;1.20;;;11.20;99.40;;;10.11;45.42;96518.78;5025066;28;20046;-65
2021/05/04 06:30:13;;;;;;;2.03;0.80;;;11.20;99.70;;;10.15;45.59;96528.03;4993692;28;20037;-65
2021/05/04 06:32:43;;;;;;;4.93;1.00;;;11.20;99.60;;;10.35;44.74;96498.41;5009237;28;20038;-66
2021/05/04 06:35:16;;;;;;;2.00;0.93;;;11.30;99.40;;;10.34;44.45;96523.50;4992631;28;20046;-65
2021/05/04 06:37:42;;;;;;;3.55;1.00;;;11.30;99.00;;;10.07;44.79;96530.25;5009114;28;20521;-65
2021/05/04 06:40:10;;;;;;;2.80;0.90;;;11.30;98.80;;;10.09;45.04;96507.69;5016379;28;20049;-65
2021/05/04 06:42:36;;;;;;;4.35;1.33;;;11.30;98.90;;;10.09;45.00;96542.22;5003949;28;20054;-65
2021/05/04 06:45:04;;;;;;;3.25;0.95;;;11.40;99.00;;;10.20;45.09;96505.31;5010366;28;20050;-65
2021/05/04 06:47:31;;;;;;;5.28;1.00;;;11.20;99.20;;;9.90;46.18;96547.63;5011733;28;20042;-65
2021/05/04 06:49:58;;;;;;;3.45;1.10;;;11.30;99.30;;;9.78;46.65;96545.69;5015871;28;20065;-65
2021/05/04 06:52:30;;;;;;;3.55;1.13;;;10.90;99.70;;;9.47;48.45;96539.63;4992005;28;20517;-65
2021/05/04 06:54:57;;;;;;;4.40;1.33;;;10.50;99.90;;;9.09;51.72;96568.41;4984181;28;20061;-65
2021/05/04 06:57:24;;;;;;;2.25;1.02;;;10.20;99.90;;;8.95;52.44;96570.88;5022051;28;20139;-65
2021/05/04 06:59:51;;;;;;;1.80;0.80;;;9.60;99.90;;;8.75;52.82;96551.22;5023110;28;20033;-65
2021/05/04 07:02:18;;;;;;;6.47;1.00;;;9.50;99.90;;;8.74;52.71;96563.31;5009276;28;20060;-65
2021/05/04 07:04:45;;;;;;;2.65;1.10;;;9.70;99.90;;;8.80;53.78;96577.69;4996815;28;20060;-66
2021/05/04 07:07:11;;;;;;;2.72;1.40;;;9.50;99.90;;;8.63;56.48;96560.44;5031769;28;20046;-65
2021/05/04 07:09:39;;;;;;;2.55;1.35;;;9.60;99.90;;;8.20;57.03;96577.25;5031362;28;20038;-65
2021/05/04 07:12:06;;;;;;;3.60;1.02;;;9.40;99.90;;;8.18;59.94;96567.81;5003790;28;20038;-65
2021/05/04 07:14:33;;;;;;;2.50;1.48;;;9.20;99.90;;;7.91;61.56;96566.56;5021185;28;20057;-65
2021/05/04 07:17:02;;;;;;;2.45;0.98;;;9.00;99.90;;;7.66;62.24;96595.31;5020081;28;20038;-65
2021/05/04 07:19:29;;;;;;;4.95;1.25;;;8.80;99.90;;;7.43;62.80;96584.28;5017494;28;20071;-65
2021/05/04 07:21:56;;;;;;;4.07;1.58;;;8.60;99.90;;;7.52;66.01;96541.72;5007033;28;20045;-65
2021/05/04 07:24:23;;;;;;;4.18;1.20;;;8.60;99.90;;;7.61;63.97;96590.34;5013469;28;20057;-65
2021/05/04 07:26:50;;;;;;;3.17;1.30;;;8.60;99.90;;;7.57;64.80;96541.50;4995898;28;20046;-65
2021/05/04 07:29:17;;;;;;;4.05;1.27;;;8.50;99.90;;;7.62;64.77;96539.53;5028557;28;20505;-65
2021/05/04 07:31:43;;;;;;;9.25;1.00;;;8.40;99.90;;;7.56;64.62;96522.59;5030602;28;20042;-65
2021/05/04 07:34:10;;;;;;;3.97;1.27;;;8.40;99.90;;;7.69;64.77;96533.19;5005945;28;20046;-65
2021/05/04 07:36:37;;;;;;;9.75;1.10;;;8.50;99.90;;;7.56;64.40;96558.75;4992570;28;20054;-65
2021/05/04 07:39:04;;;;;;;2.95;1.13;;;8.50;99.90;;;7.41;67.45;96536.22;5018476;28;20045;-65
2021/05/04 07:41:31;;;;;;;3.80;1.33;;;8.40;99.90;;;7.47;66.66;96516.13;5007815;28;20526;-65
2021/05/04 07:43:58;;;;;;;2.15;1.10;;;8.40;99.90;;;7.51;65.52;96537.47;5006512;28;20038;-65
2021/05/04 07:46:25;;;;;;;3.05;1.15;;;8.40;99.90;;;7.46;66.63;96517.03;5004162;28;20034;-65
2021/05/04 07:48:53;;;;;;;6.40;1.30;;;8.30;99.90;;;7.42;67.38;96528.41;5012686;28;20045;-65
2021/05/04 07:51:36;;;;;;;4.82;1.23;;;8.30;99.90;;;7.37;68.60;96517.47;5015751;28;20045;-65
2021/05/04 07:54:03;;;;;;;3.20;1.60;;;8.20;99.90;;;7.33;67.67;96521.09;5000156;28;20136;-65
2021/05/04 07:56:30;;;;;;;1.63;1.05;;;8.20;99.90;;;7.27;68.01;96557.50;5012773;28;20403;-65
2021/05/04 07:58:57;;;;;;;6.40;1.63;;;8.20;99.90;;;7.38;71.90;96519.13;5011104;28;20418;-65
2021/05/04 08:01:23;;;;;;;4.68;1.77;;;8.20;99.90;;;7.25;71.69;96554.16;5020011;28;20402;-65
2021/05/04 08:03:50;;;;;;;3.10;1.73;;;8.20;99.90;;;7.25;71.83;96561.91;5019367;28;20208;-64
2021/05/04 08:06:17;;;;;;;3.50;1.55;;;8.30;99.90;;;7.32;72.33;96571.91;5019631;28;20052;-65
2021/05/04 08:08:43;;;;;;;2.20;1.30;;;8.30;99.90;;;7.21;69.85;96568.13;5020566;28;20038;-65
2021/05/04 08:11:10;;;;;;;3.97;1.52;;;8.30;99.90;;;7.20;72.41;96548.38;5021636;28;20448;-65
2021/05/04 08:13:37;;;;;;;6.22;1.70;;;8.30;99.90;;;7.10;71.56;96547.97;5017737;28;20407;-65
2021/05/04 08:16:09;;;;;;;4.30;1.50;;;8.20;99.90;;;7.01;73.76;96556.94;5016359;28;20101;-64
2021/05/04 08:18:36;;;;;;;4.75;1.45;;;8.20;99.90;;;7.11;72.92;96527.22;4988112;28;20060;-64
2021/05/04 08:21:03;;;;;;;2.92;1.40;;;8.10;99.90;;;7.18;73.34;96551.03;4994504;28;20075;-65
2021/05/04 08:23:30;;;;;;;3.45;1.20;;;8.10;99.90;;;6.98;72.62;96522.69;5009968;28;20049;-65
2021/05/04 08:25:56;;;;;;;3.40;1.77;;;8.20;99.90;;;7.08;74.55;96519.63;5010543;28;20041;-65
2021/05/04 08:28:23;;;;;;;5.32;1.50;;;8.10;99.90;;;7.10;73.44;96455.06;5011115;28;20096;-65
2021/05/04 08:30:53;;;;;;;5.40;1.52;;;8.10;99.90;;;7.17;74.39;96540.78;5011075;28;20058;-65
2021/05/04 08:33:21;;;;;;;5.50;1.52;;;8.10;99.90;;;6.91;75.72;96538.47;4993936;28;20046;-65
2021/05/04 08:35:47;;;;;;;3.80;1.83;;;8.00;99.90;;;6.89;82.29;96522.22;4993431;28;20034;-65
2021/05/04 08:38:14;;;;;;;8.98;2.35;;;7.90;99.90;;;6.81;76.74;96523.47;4992285;28;20045;-65
2021/05/04 08:40:42;;;;;;;4.32;1.75;;;7.80;99.90;;;6.62;77.45;96570.69;4989982;28;20042;-65
2021/05/04 08:43:10;;;;;;;3.20;1.70;;;7.80;99.90;;;6.79;77.87;96551.06;5011164;28;20052;-65
2021/05/04 08:45:37;;;;;;;3.75;1.70;;;7.70;99.90;;;6.55;78.56;96533.19;5012128;28;20061;-66
2021/05/04 08:48:04;;;;;;;5.20;1.90;;;7.70;99.90;;;6.39;78.38;96563.94;5008799;28;20061;-65
2021/05/04 08:50:35;;;;;;;5.38;2.45;;;7.70;99.90;;;6.53;76.45;96518.69;5009728;28;20453;-65
2021/05/04 08:53:03;;;;;;;3.75;1.30;;;7.60;99.90;;;6.52;77.31;96527.31;5010124;28;20490;-65
2021/05/04 08:55:29;;;;;;;7.15;2.13;;;7.50;99.90;;;6.56;79.44;96550.31;5009927;28;20103;-64
2021/05/04 08:58:03;;;;;;;3.28;1.48;;;7.50;99.90;;;6.51;78.34;96546.28;5005575;28;20058;-64
2021/05/04 09:00:51;;;;;;;3.80;1.92;;;7.60;99.90;;;6.43;78.33;96585.25;5006123;28;20035;-64
2021/05/04 09:03:23;;;;;;;4.45;1.45;;;7.50;99.90;;;6.32;79.11;96601.19;5004362;28;20041;-64
2021/05/04 09:14:05;;;;;;;4.35;1.90;;;7.40;99.90;;;6.43;81.73;96555.19;5000901;28;20049;-65
2021/05/04 09:16:44;;;;;;;4.50;2.00;;;7.50;99.90;;;6.46;82.55;96555.03;5004355;28;20065;-64
2021/05/04 09:21:41;;;;;;;4.82;1.88;;;7.50;99.90;;;6.52;82.38;96545.38;5004171;28;20052;-64
2021/05/04 09:24:42;;;;;;;4.43;2.40;;;7.40;99.90;;;6.58;82.92;96539.94;4996559;28;20046;-65
2021/05/04 09:27:14;;;;;;;2.30;1.23;;;7.50;99.90;;;6.41;82.80;96538.94;4995363;28;20062;-64
2021/05/04 09:29:53;;;;;;;3.80;1.73;;;7.50;99.90;;;6.66;82.24;96527.53;4997670;28;20164;-64
2021/05/04 09:32:29;;;;;;;4.07;1.50;;;7.50;99.90;;;6.51;81.50;96531.66;4993608;28;20049;-64
2021/05/04 09:34:58;;;;;;;4.90;2.63;;;7.50;99.90;;;6.30;83.34;96559.19;5016024;28;20077;-64
2021/05/04 09:37:36;;;;;;;2.78;1.60;;;7.50;99.90;;;6.45;83.28;96535.34;4995914;28;20044;-64
2021/05/04 09:40:26;;;;;;;5.15;2.20;;;7.40;99.90;;;6.41;83.78;96543.22;5019342;28;20104;-64
2021/05/04 09:43:10;;;;;;;3.67;2.00;;;7.50;99.90;;;6.61;82.69;96524.34;4992945;28;20050;-65
2021/05/04 09:45:40;;;;;;;5.10;1.90;;;7.50;99.90;;;6.61;82.94;96520.00;4993819;28;20064;-65
2021/05/04 09:48:24;;;;;;;5.28;1.67;;;7.60;99.90;;;6.53;82.52;96558.19;4995064;28;20038;-65
2021/05/04 09:51:03;;;;;;;4.85;2.10;;;7.50;99.90;;;6.48;82.84;96552.41;5009092;28;20374;-65
2021/05/04 09:53:42;;;;;;;2.65;1.75;;;7.50;99.90;;;6.68;82.98;96515.41;5013713;28;20180;-65
2021/05/04 09:56:12;;;;;;;2.58;1.52;;;7.60;99.90;;;6.72;82.74;96572.88;4996734;28;20502;-66
2021/05/04 09:58:48;;;;;;;5.18;2.60;;;7.70;99.90;;;6.88;82.79;96524.88;5008503;28;20042;-65
2021/05/04 10:01:19;;;;;;;3.92;1.73;;;7.90;99.90;;;6.77;81.93;96571.75;5007563;28;20129;-66
2021/05/04 10:03:48;;;;;;;4.67;1.50;;;8.00;99.90;;;7.12;79.96;96544.41;4992672;28;20053;-66
2021/05/04 10:06:17;;;;;;;2.70;1.55;;;8.10;99.90;;;7.00;78.88;96526.06;4992690;28;20363;-66
2021/05/04 10:08:46;;;;;;;3.72;2.20;;;8.00;99.90;;;6.95;81.22;96549.47;5010662;28;20046;-65
2021/05/04 10:11:17;;;;;;;4.43;2.00;;;8.20;99.90;;;7.09;80.84;96525.63;5000695;28;20088;-65
2021/05/04 10:13:47;;;;;;;4.90;1.70;;;8.20;99.90;;;7.09;78.65;96548.84;4994959;28;20141;-66
2021/05/04 10:16:13;;;;;;;2.40;1.23;;;8.30;99.90;;;7.31;78.12;96500.50;5027799;28;20038;-65
2021/05/04 10:18:40;;;;;;;2.85;1.52;;;8.50;99.90;;;7.41;78.00;96492.34;5019718;28;20045;-66
2021/05/04 10:21:08;;;;;;;2.38;1.30;;;8.70;99.90;;;7.71;77.65;96521.03;5009990;28;20041;-65
2021/05/04 10:23:38;;;;;;;3.67;2.10;;;8.90;99.90;;;7.57;78.59;96534.59;4993531;28;20061;-65
2021/05/04 10:26:14;;;;;;;2.10;1.20;;;8.90;99.90;;;7.45;77.11;96551.50;5012695;28;20072;-66
2021/05/04 10:28:49;;;;;;;3.17;1.85;;;8.80;99.90;;;7.67;77.02;96499.69;4991672;28;20046;-65
2021/05/04 10:31:32;;;;;;;3.05;1.35;;;8.60;99.90;;;7.55;77.28;96531.28;4989142;28;20542;-65
2021/05/04 10:34:26;;;;;;;3.92;1.33;;;8.50;99.90;;;7.48;77.95;96584.06;4977769;28;20034;-65
2021/05/04 10:36:55;;;;;;;2.88;1.17;;;8.60;99.90;;;7.43;78.09;96535.25;5015853;28;20045;-65
2021/05/04 10:39:46;;;;;;;3.30;1.73;;;8.60;99.90;;;7.36;78.35;96544.19;4994999;28;20046;-65
2021/05/04 10:42:16;;;;;;;3.28;1.63;;;8.70;99.90;;;7.40;77.69;96547.47;5027421;28;20053;-66
2021/05/04 10:44:56;;;;;;;3.63;1.50;;;8.70;99.90;;;7.46;77.77;96547.19;5018819;28;20099;-66
2021/05/04 10:47:44;;;;;;;4.00;1.45;;;8.80;99.90;;;7.41;78.03;96528.47;5009724;28;20045;-66